Terminal Aerodrome Forecast
Issued by NWS

Home | Current Version | Previous Version | Text Only | Print | Product List | Glossary On
Versions: 1 2 3 4 5 6 7 8 9 10 11 12 13
000
FTAK31 PAJN 010500
TAFASI
TAF
PASI 010535Z 0106/0206 VRB04KT P6SM BKN120
     FM010900 07008KT P6SM SCT150 WS020/07025KT
     FM011500 07008KT P6SM SCT200 WS020/07030KT
     FM012100 07013G21KT P6SM SKC WS020/07035KT
     FM020300 07011G18KT P6SM SKC=

USA.gov is the U.S. government's official web portal to all federal, state and local government web resources and services.